Brookings, OR

3:04 PM PDT on July 25, 2016 (GMT -0700)
Gardner Ridge | | Change Station

Elev 1365 ft 42.11 °N, 124.21 °W | Updated 8 minutes ago

Clear
Clear
69.8 °F
Feels Like 69.8 °F
N
6.0
Wind Variable Wind from SSW
Gusts 11.0 mph

Today
High -- | Low -- °F
--% Chance of Precip.
Yesterday
High -- | Low -- °F
Precip. -- in
Pressure 30.06 in
Visibility 10.0 miles
Clouds Clear
Dew Point 60 °F
Humidity 71%
Rainfall 0.00 in
Snow Depth Not available.
6:03 AM 8:42 PM
Waning Gibbous, 62% visible
METAR KBOK 252156Z AUTO 17007KT 10SM CLR 18/13 A3002 RMK AO2 SLP179 T01780133
Pressure 30.06 in
Visibility 10.0 miles
Clouds Clear
Dew Point 60 °F
Humidity 71%
Rainfall 0.00 in
Snow Depth Not available.
6:03 AM 8:42 PM
Waning Gibbous, 62% visible
METAR KBOK 252156Z AUTO 17007KT 10SM CLR 18/13 A3002 RMK AO2 SLP179 T01780133

10-Day Weather Forecast

Almanac

Astronomy

Jul. 25, 2016 Rise Set
Actual Time
Civil Twilight
Nautical Twilight
Astronomical Twilight
Moon
Length of Visible Light
Length of Day
Tomorrow will be .
, % of the Moon is Illuminated

Today's Extremes

State Highs State Lows

Community

WunderPhotos

Upload Photos

1,927,426 photos uploaded!

WunderBlog® & News

Nearby

Air Quality

  Air Quality AQ Index Pollutant
Not available.

Snow Depth

Station Depth Elevation

Earthquake Activity

City Distance Mag. Time & Date
Minimum magnitude displayed is 2.5.

Coastal Water Temperatures

Place Temperature

Stations

Nearby Weather Stations

Station Location Temp. Windchill Dew Point Humidity Wind Precip. Elev Updated Type
                   

Watches & Warnings

There are currently no watches in effect.